• Join FlightAware (Why Join?)
  • Login
  • US Flag 
12:36AM EST


 

Airport Tracker/Info


-or-


 

Live Flight TrackerFlight Track Log ✈ EGF4269 ✈ 17-Apr-2013 ✈ KORD - KAZO

Flight Track Log - Related Links

Times and Time Zones

All times are in EDT time to prevent confusion due to time zone crossing. See the EGF4269 flight status page for this flight to view local times or setup timezone preferences in your user account.

Time Position Orientation Groundspeed Altitude Reporting Facility
EDT Latitude Longitude Course Direction KTS MPH feet Rate Location/Type
11:05PM 42.0000 -87.8833 77° East 157 181 1,900  Level Chicago TRACON
11:06PM 42.0167 -87.8000 75° East 217 250 3,800 1,380 Climbing Chicago TRACON
11:07PM 42.0382 -87.4964 83° East  Level FlightAware Approximate
11:07PM 42.0167 -87.7167 90° East 267 307 4,700  Level Chicago TRACON
11:08PM 42.0515 -87.3567 78° East  Level FlightAware Approximate
11:08PM 42.0167 -87.6000 90° East 278 320 5,000  Level Chicago TRACON
11:09PM 42.0728 -87.2187 78° East  Level FlightAware Approximate
11:09PM 42.0333 -87.5167 75° East 290 334 6,900  Level Chicago TRACON
11:10PM 42.0948 -87.0810 77° East  Level FlightAware Approximate
11:11PM 42.0786 -87.2653 76° East 313 360 11,700  Level Chicago Center
11:12PM 42.0989 -87.1375 78° East 340 391 13,400 1,620 Climbing Chicago Center
11:13PM 42.1158 -87.0011 80° East 366 421 15,000 1,500 Climbing Chicago Center
11:14PM 42.1175 -86.8625 89° East 370 426 16,500 960 Climbing Chicago Center
11:15PM 42.1236 -86.7203 87° East 379 436 17,000 240 Climbing Chicago Center
11:16PM 42.1292 -86.5558 87° East 404 465 17,000 -60 Level Chicago Center
11:17PM 42.1347 -86.3981 87° East 419 482 16,900 -60 Descending Chicago Center
11:18PM 42.1392 -86.2608 87° East 373 429 16,900 -600 Level Chicago Center
11:19PM 42.1436 -86.1456 87° East 314 361 15,800 -1,320 Descending Chicago Center
11:20PM 42.1578 -86.0333 80° East 307 353 14,200 -1,740 Descending Chicago Center
11:21PM 42.1778 -85.9086 78° East 305 351 12,300 -1,740 Descending Chicago Center
11:22PM 42.2406 -85.8436 37° Northeast 307 353 10,700 -1,620 Descending Chicago Center
11:23PM 42.3144 -85.8258 10° North 283 326 9,100 -1,680 Descending Chicago Center
11:24PM 42.3742 -85.7686 35° Northeast 269 310 7,400 -1,920 Descending Chicago Center
11:25PM 42.4358 -85.7094 35° Northeast 271 312 5,300 -1,680 Descending Chicago Center
11:27PM 42.4569 -85.6261 71° East 251 289 4,100 -1,140 Descending Chicago Center
11:28PM 42.4094 -85.5872 149° Southeast 218 251 3,000 -1,140 Descending Chicago Center